createdAt,value
2017-09-22T00:01:20.847Z,100823.59
2017-09-22T00:03:48.250Z,100819.17
2017-09-22T00:06:15.645Z,100812.48
2017-09-22T00:08:43.054Z,100818.14
2017-09-22T00:11:10.456Z,100817.73
2017-09-22T00:13:38.019Z,100817.54
2017-09-22T00:16:05.418Z,100818.08
2017-09-22T00:18:32.814Z,100815.00
2017-09-22T00:21:00.211Z,100812.52
2017-09-22T00:23:27.614Z,100807.78
2017-09-22T00:25:55.016Z,100802.06
2017-09-22T00:28:22.415Z,100805.52
2017-09-22T00:30:49.918Z,100794.73
2017-09-22T00:33:17.314Z,100799.86
2017-09-22T00:35:44.711Z,100802.34
2017-09-22T00:38:12.127Z,100796.59
2017-09-22T00:40:39.523Z,100797.84
2017-09-22T00:43:06.931Z,100798.05
2017-09-22T00:45:34.329Z,100797.20
2017-09-22T00:48:01.838Z,100793.31
2017-09-22T00:50:29.236Z,100795.80
2017-09-22T00:52:56.636Z,100792.52
2017-09-22T00:55:24.033Z,100795.88
2017-09-22T00:57:51.436Z,100787.67
2017-09-22T01:00:18.835Z,100790.95
2017-09-22T01:02:46.238Z,100791.27
2017-09-22T01:05:13.647Z,100789.42
2017-09-22T01:07:41.038Z,100790.04
2017-09-22T01:10:08.434Z,100791.68
2017-09-22T01:12:35.834Z,100786.75
2017-09-22T01:15:03.236Z,100782.63
2017-09-22T01:17:30.645Z,100786.03
2017-09-22T01:19:58.032Z,100781.52
2017-09-22T01:22:25.463Z,100786.03
2017-09-22T01:24:53.715Z,100780.08
2017-09-22T01:27:21.114Z,100779.97
2017-09-22T01:29:48.523Z,100777.71
2017-09-22T01:32:15.922Z,100782.56
2017-09-22T01:34:43.327Z,100781.00
2017-09-22T01:37:10.727Z,100778.12
2017-09-22T01:39:38.138Z,100777.63
2017-09-22T01:42:05.540Z,100777.94
2017-09-22T01:44:32.930Z,100783.36
2017-09-22T01:47:00.335Z,100780.08
2017-09-22T01:49:27.730Z,100773.52
2017-09-22T01:51:55.132Z,100771.75
2017-09-22T01:54:22.533Z,100767.14
2017-09-22T01:56:49.931Z,100762.71
2017-09-22T01:59:17.327Z,100759.01
2017-09-22T02:01:44.734Z,100766.33
2017-09-22T02:04:12.135Z,100766.41
2017-09-22T02:06:39.530Z,100761.98
2017-09-22T02:09:06.934Z,100763.23
2017-09-22T02:11:34.333Z,100760.57
2017-09-22T02:14:01.742Z,100761.80
2017-09-22T02:16:29.134Z,100753.17
2017-09-22T02:18:56.537Z,100760.04
2017-09-22T02:21:23.939Z,100755.11
2017-09-22T02:23:51.338Z,100762.93
2017-09-22T02:26:18.752Z,100764.27
2017-09-22T02:28:46.141Z,100759.12
2017-09-22T02:31:13.552Z,100760.14
2017-09-22T02:33:40.946Z,100756.75
2017-09-22T02:36:08.355Z,100747.63
2017-09-22T02:38:35.754Z,100751.10
2017-09-22T02:41:03.152Z,100748.53
2017-09-22T02:43:30.558Z,100746.30
2017-09-22T02:45:57.958Z,100752.36
2017-09-22T02:48:25.371Z,100752.55
2017-09-22T02:50:52.765Z,100747.62
2017-09-22T02:53:20.174Z,100745.36
2017-09-22T02:55:47.562Z,100752.72
2017-09-22T02:58:14.955Z,100754.39
2017-09-22T03:00:42.406Z,100754.16
2017-09-22T03:03:09.798Z,100757.33
2017-09-22T03:05:37.198Z,100748.58
2017-09-22T03:08:04.595Z,100752.30
2017-09-22T03:10:31.998Z,100758.57
2017-09-22T03:12:59.398Z,100749.83
2017-09-22T03:15:26.795Z,100752.91
2017-09-22T03:17:54.194Z,100740.70
2017-09-22T03:20:21.586Z,100748.09
2017-09-22T03:22:48.982Z,100751.56
2017-09-22T03:25:16.383Z,100750.77
2017-09-22T03:27:43.782Z,100750.05
2017-09-22T03:30:11.186Z,100749.94
2017-09-22T03:32:38.586Z,100749.73
2017-09-22T03:35:05.987Z,100749.73
2017-09-22T03:37:33.378Z,100747.36
2017-09-22T03:40:00.786Z,100751.12
2017-09-22T03:42:28.182Z,100753.55
2017-09-22T03:44:55.599Z,100753.13
2017-09-22T03:47:22.995Z,100758.14
2017-09-22T03:49:50.395Z,100752.11
2017-09-22T03:52:17.795Z,100750.96
2017-09-22T03:54:45.195Z,100751.67
2017-09-22T03:57:12.599Z,100758.64
2017-09-22T03:59:39.994Z,100752.27
2017-09-22T04:02:07.394Z,100753.70
2017-09-22T04:04:34.794Z,100748.05
2017-09-22T04:07:02.202Z,100748.34
2017-09-22T04:09:29.595Z,100754.47
2017-09-22T04:11:56.994Z,100756.31
2017-09-22T04:14:24.390Z,100759.38
2017-09-22T04:16:51.799Z,100764.09
2017-09-22T04:19:19.193Z,100763.73
2017-09-22T04:21:46.598Z,100763.34
2017-09-22T04:24:13.989Z,100758.41
2017-09-22T04:26:41.396Z,100754.77
2017-09-22T04:29:08.806Z,100755.05
2017-09-22T04:31:36.200Z,100759.88
2017-09-22T04:34:03.614Z,100763.98
2017-09-22T04:36:31.011Z,100763.13
2017-09-22T04:38:58.402Z,100762.63
2017-09-22T04:41:25.811Z,100760.98
2017-09-22T04:43:53.204Z,100767.41
2017-09-22T04:46:20.598Z,100760.52
2017-09-22T04:48:47.998Z,100761.73
2017-09-22T04:51:16.327Z,100764.66
2017-09-22T04:53:43.731Z,100765.38
2017-09-22T04:56:11.125Z,100768.02
2017-09-22T04:58:38.522Z,100762.35
2017-09-22T05:01:05.939Z,100765.96
2017-09-22T05:03:33.333Z,100770.45
2017-09-22T05:06:00.731Z,100769.23
2017-09-22T05:08:28.126Z,100771.67
2017-09-22T05:10:55.544Z,100776.22
2017-09-22T05:13:22.935Z,100772.09
2017-09-22T05:15:50.331Z,100776.42
2017-09-22T05:18:17.730Z,100769.88
2017-09-22T05:20:45.131Z,100778.02
2017-09-22T05:23:12.543Z,100779.46
2017-09-22T05:25:39.933Z,100778.73
2017-09-22T05:28:07.346Z,100779.16
2017-09-22T05:30:34.744Z,100779.16
2017-09-22T05:33:02.149Z,100774.55
2017-09-22T05:35:29.555Z,100773.77
2017-09-22T05:37:56.958Z,100781.07
2017-09-22T05:40:24.376Z,100784.77
2017-09-22T05:42:51.772Z,100787.67
2017-09-22T05:45:19.191Z,100789.00
2017-09-22T05:47:46.587Z,100794.75
2017-09-22T05:50:13.989Z,100797.00
2017-09-22T05:52:41.390Z,100802.33
2017-09-22T05:55:08.790Z,100800.60
2017-09-22T05:57:36.185Z,100797.34
2017-09-22T06:00:03.582Z,100799.68
2017-09-22T06:02:30.999Z,100801.25
2017-09-22T06:04:58.391Z,100796.67
2017-09-22T06:07:25.822Z,100798.41
2017-09-22T06:09:53.260Z,100798.43
2017-09-22T06:12:20.627Z,100804.20
2017-09-22T06:14:48.031Z,100797.87
2017-09-22T06:17:15.428Z,100793.89
2017-09-22T06:19:43.772Z,100794.53
2017-09-22T06:22:11.162Z,100802.05
2017-09-22T06:24:38.563Z,100800.09
2017-09-22T06:27:05.963Z,100802.70
2017-09-22T06:29:33.354Z,100799.34
2017-09-22T06:32:00.774Z,100801.91
2017-09-22T06:34:28.166Z,100807.77
2017-09-22T06:36:55.600Z,100796.33
2017-09-22T06:39:22.994Z,100803.52
2017-09-22T06:41:50.393Z,100803.88
2017-09-22T06:44:17.791Z,100810.05
2017-09-22T06:46:45.182Z,100811.83
2017-09-22T06:49:12.582Z,100816.03
2017-09-22T06:51:39.998Z,100813.58
2017-09-22T06:54:07.414Z,100813.29
2017-09-22T06:56:34.806Z,100817.19
2017-09-22T06:59:02.203Z,100821.33
2017-09-22T07:01:29.606Z,100830.48
2017-09-22T07:03:57.003Z,100829.05
2017-09-22T07:06:24.402Z,100831.81
2017-09-22T07:08:51.803Z,100831.52
2017-09-22T07:11:19.211Z,100834.73
2017-09-22T07:13:46.607Z,100831.66
2017-09-22T07:16:14.006Z,100835.46
2017-09-22T07:18:41.438Z,100838.55
2017-09-22T07:21:08.807Z,100837.95
2017-09-22T07:23:36.210Z,100836.70
2017-09-22T07:26:03.614Z,100834.44
2017-09-22T07:28:31.007Z,100834.13
2017-09-22T07:30:58.414Z,100831.24
2017-09-22T07:33:25.807Z,100840.16
2017-09-22T07:35:53.219Z,100837.03
2017-09-22T07:38:20.617Z,100849.27
2017-09-22T07:40:48.014Z,100847.55
2017-09-22T07:43:15.426Z,100840.50
2017-09-22T07:45:42.829Z,100851.77
2017-09-22T07:48:10.246Z,100852.06
2017-09-22T07:50:37.645Z,100850.77
2017-09-22T07:53:05.038Z,100854.16
2017-09-22T07:55:32.442Z,100858.00
2017-09-22T07:57:59.844Z,100854.56
2017-09-22T08:00:27.266Z,100853.06
2017-09-22T08:02:54.656Z,100855.98
2017-09-22T08:05:22.045Z,100854.59
2017-09-22T08:07:49.448Z,100857.24
2017-09-22T08:10:16.845Z,100856.41
2017-09-22T08:12:44.252Z,100860.73
2017-09-22T08:15:11.647Z,100867.34
2017-09-22T08:17:39.043Z,100873.00
2017-09-22T08:20:06.442Z,100872.65
2017-09-22T08:22:33.841Z,100870.94
2017-09-22T08:25:01.255Z,100871.27
2017-09-22T08:27:28.651Z,100862.27
2017-09-22T08:29:56.052Z,100862.27
2017-09-22T08:32:23.451Z,100865.11
2017-09-22T08:34:50.857Z,100860.66
2017-09-22T08:37:18.267Z,100868.30
2017-09-22T08:39:45.683Z,100862.80
2017-09-22T08:42:13.083Z,100860.61
2017-09-22T08:44:40.483Z,100864.59
2017-09-22T08:47:07.880Z,100865.50
2017-09-22T08:49:35.287Z,100864.36
2017-09-22T08:52:02.694Z,100867.27
2017-09-22T08:54:30.090Z,100871.66
2017-09-22T08:56:57.498Z,100868.20
2017-09-22T08:59:24.890Z,100868.48
2017-09-22T09:01:52.311Z,100862.78
2017-09-22T09:04:19.702Z,100860.73
2017-09-22T09:06:47.102Z,100863.49
2017-09-22T09:09:14.514Z,100866.95
2017-09-22T09:11:41.928Z,100866.40
2017-09-22T09:14:09.335Z,100865.41
2017-09-22T09:16:36.738Z,100864.22
2017-09-22T09:19:04.131Z,100855.73
2017-09-22T09:21:31.537Z,100855.89
2017-09-22T09:23:58.931Z,100849.23
2017-09-22T09:26:26.334Z,100853.09
2017-09-22T09:28:53.722Z,100851.13
2017-09-22T09:31:21.123Z,100856.09
2017-09-22T09:33:48.527Z,100852.75
2017-09-22T09:36:15.927Z,100861.91
2017-09-22T09:38:43.339Z,100862.58
2017-09-22T09:41:10.735Z,100861.36
2017-09-22T09:43:38.139Z,100865.05
2017-09-22T09:46:05.539Z,100864.65
2017-09-22T09:48:32.936Z,100862.61
2017-09-22T09:51:00.348Z,100863.03
2017-09-22T09:53:27.748Z,100870.52
2017-09-22T09:55:55.147Z,100862.28
2017-09-22T09:58:22.553Z,100866.52
2017-09-22T10:00:49.947Z,100868.61
2017-09-22T10:03:17.356Z,100868.81
2017-09-22T10:05:44.751Z,100866.05
2017-09-22T10:08:12.158Z,100876.53
2017-09-22T10:10:39.562Z,100864.94
2017-09-22T10:13:06.963Z,100864.14
2017-09-22T10:15:34.378Z,100864.81
2017-09-22T10:18:01.774Z,100857.94
2017-09-22T10:20:29.169Z,100853.39
2017-09-22T10:22:56.668Z,100856.45
2017-09-22T10:25:24.066Z,100856.30
2017-09-22T10:27:51.470Z,100857.52
2017-09-22T10:30:18.867Z,100855.97
2017-09-22T10:32:46.275Z,100858.43
2017-09-22T10:35:13.670Z,100856.14
2017-09-22T10:37:41.066Z,100860.17
2017-09-22T10:40:08.501Z,100855.55
2017-09-22T10:42:35.891Z,100855.57
2017-09-22T10:45:03.286Z,100857.75
2017-09-22T10:47:30.697Z,100857.84
2017-09-22T10:49:58.091Z,100849.98
2017-09-22T10:52:25.507Z,100864.78
2017-09-22T10:54:52.910Z,100860.30
2017-09-22T10:57:20.308Z,100860.37
2017-09-22T10:59:47.714Z,100864.48
2017-09-22T11:02:15.115Z,100863.76
2017-09-22T11:04:42.538Z,100864.36
2017-09-22T11:07:09.936Z,100865.59
2017-09-22T11:09:37.332Z,100870.53
2017-09-22T11:12:04.734Z,100870.73
2017-09-22T11:14:32.131Z,100869.30
2017-09-22T11:16:59.542Z,100861.36
2017-09-22T11:19:26.939Z,100854.95
2017-09-22T11:21:54.339Z,100863.48
2017-09-22T11:24:21.741Z,100859.71
2017-09-22T11:26:49.136Z,100862.26
2017-09-22T11:29:16.547Z,100859.38
2017-09-22T11:31:43.406Z,100859.52
2017-09-22T11:34:10.246Z,100864.22
2017-09-22T11:36:37.655Z,100866.45
2017-09-22T11:39:05.049Z,100867.42
2017-09-22T11:41:32.463Z,100856.89
2017-09-22T11:43:59.879Z,100858.11
2017-09-22T11:46:27.274Z,100858.27
2017-09-22T11:48:54.681Z,100861.47
2017-09-22T11:51:22.072Z,100855.48
2017-09-22T11:53:49.493Z,100855.31
2017-09-22T11:56:16.883Z,100846.43
2017-09-22T11:58:44.280Z,100844.53
2017-09-22T12:01:11.681Z,100841.38
2017-09-22T12:03:39.077Z,100842.27
2017-09-22T12:06:06.478Z,100843.45
2017-09-22T12:08:33.884Z,100839.72
2017-09-22T12:11:01.342Z,100852.91
2017-09-22T12:13:28.742Z,100847.94
2017-09-22T12:15:56.151Z,100845.53
2017-09-22T12:18:23.598Z,100841.13
2017-09-22T12:20:50.992Z,100840.94
2017-09-22T12:23:18.395Z,100845.81
2017-09-22T12:25:45.835Z,100843.59
2017-09-22T12:28:13.250Z,100840.06
2017-09-22T12:30:40.639Z,100838.22
2017-09-22T12:33:08.033Z,100835.78
2017-09-22T12:35:35.435Z,100842.72
2017-09-22T12:38:02.830Z,100841.56
2017-09-22T12:40:30.246Z,100845.74
2017-09-22T12:42:57.645Z,100841.48
2017-09-22T12:45:25.184Z,100841.47
2017-09-22T12:47:52.596Z,100847.34
2017-09-22T12:50:19.988Z,100847.77
2017-09-22T12:52:47.400Z,100843.78
2017-09-22T12:55:14.858Z,100848.82
2017-09-22T12:57:42.256Z,100848.34
2017-09-22T13:00:09.663Z,100847.38
2017-09-22T13:02:37.058Z,100856.59
2017-09-22T13:05:04.460Z,100851.34
2017-09-22T13:07:31.865Z,100852.91
2017-09-22T13:09:59.262Z,100859.14
2017-09-22T13:12:26.666Z,100859.14
2017-09-22T13:14:54.054Z,100859.33
2017-09-22T13:17:21.476Z,100861.89
2017-09-22T13:19:48.946Z,100863.92
2017-09-22T13:22:16.360Z,100862.18
2017-09-22T13:24:43.755Z,100862.11
2017-09-22T13:27:11.191Z,100855.05
2017-09-22T13:29:38.599Z,100858.06
2017-09-22T13:32:06.024Z,100846.05
2017-09-22T13:34:33.436Z,100855.70
2017-09-22T13:37:00.831Z,100857.68
2017-09-22T13:39:28.276Z,100858.18
2017-09-22T13:41:55.674Z,100854.36
2017-09-22T13:44:23.089Z,100862.71
2017-09-22T13:46:50.535Z,100864.48
2017-09-22T13:49:17.948Z,100860.03
2017-09-22T13:51:45.363Z,100860.28
2017-09-22T13:54:12.763Z,100856.97
2017-09-22T13:56:40.176Z,100859.52
2017-09-22T13:59:07.598Z,100859.05
2017-09-22T14:01:35.026Z,100852.23
2017-09-22T14:04:02.419Z,100858.59
2017-09-22T14:06:29.827Z,100856.69
2017-09-22T14:08:57.227Z,100851.94
2017-09-22T14:11:24.638Z,100856.55
2017-09-22T14:13:52.081Z,100854.10
2017-09-22T14:16:19.455Z,100853.98
2017-09-22T14:18:46.868Z,100852.17
2017-09-22T14:21:21.767Z,100857.93
2017-09-22T14:23:49.174Z,100860.48
2017-09-22T14:26:16.571Z,100863.35
2017-09-22T14:28:43.974Z,100858.16
2017-09-22T14:31:11.375Z,100860.41
2017-09-22T14:33:38.777Z,100865.26
2017-09-22T14:36:06.179Z,100864.95
2017-09-22T14:38:33.575Z,100867.33
2017-09-22T14:41:01.425Z,100864.57
2017-09-22T14:43:28.834Z,100868.33
2017-09-22T14:45:56.246Z,100867.05
2017-09-22T14:48:23.657Z,100874.81
2017-09-22T14:50:51.051Z,100878.22
2017-09-22T14:53:18.459Z,100874.70
2017-09-22T14:55:45.881Z,100878.91
2017-09-22T14:58:13.342Z,100878.58
2017-09-22T15:00:40.756Z,100876.79
2017-09-22T15:03:08.154Z,100881.27
2017-09-22T15:05:35.602Z,100875.67
2017-09-22T15:08:03.006Z,100884.70
2017-09-22T15:10:30.407Z,100880.61
2017-09-22T15:12:57.811Z,100891.39
2017-09-22T15:15:25.214Z,100881.82
2017-09-22T15:17:52.631Z,100881.64
2017-09-22T15:20:20.043Z,100880.38
2017-09-22T15:22:47.453Z,100883.45
2017-09-22T15:25:14.860Z,100877.39
2017-09-22T15:27:42.252Z,100870.01
2017-09-22T15:30:09.713Z,100873.73
2017-09-22T15:32:37.102Z,100881.72
2017-09-22T15:35:04.506Z,100882.34
2017-09-22T15:37:31.918Z,100879.71
2017-09-22T15:39:59.319Z,100868.73
2017-09-22T15:42:26.722Z,100876.83
2017-09-22T15:44:54.127Z,100875.23
2017-09-22T15:47:21.532Z,100879.02
2017-09-22T15:49:48.920Z,100875.61
2017-09-22T15:52:16.325Z,100881.58
2017-09-22T15:54:43.716Z,100886.55
2017-09-22T15:57:11.870Z,100880.92
2017-09-22T15:59:39.270Z,100878.49
2017-09-22T16:02:06.679Z,100880.64
2017-09-22T16:04:34.971Z,100879.22
2017-09-22T16:07:02.368Z,100885.75
2017-09-22T16:09:29.853Z,100883.39
2017-09-22T16:11:57.238Z,100885.05
2017-09-22T16:14:24.639Z,100879.19
2017-09-22T16:16:52.034Z,100881.23
2017-09-22T16:19:19.442Z,100881.13
2017-09-22T16:21:47.683Z,100884.25
2017-09-22T16:24:15.083Z,100889.70
2017-09-22T16:26:42.488Z,100889.19
2017-09-22T16:29:09.879Z,100885.78
2017-09-22T16:31:37.287Z,100889.52
2017-09-22T16:34:04.704Z,100894.16
2017-09-22T16:36:32.139Z,100898.59
2017-09-22T16:38:59.536Z,100893.14
2017-09-22T16:41:26.935Z,100897.39
2017-09-22T16:43:54.348Z,100896.52
2017-09-22T16:46:21.754Z,100896.16
2017-09-22T16:48:49.147Z,100900.97
2017-09-22T16:51:16.544Z,100901.44
2017-09-22T16:53:43.952Z,100902.98
2017-09-22T16:56:11.347Z,100906.94
2017-09-22T16:58:38.749Z,100904.28
2017-09-22T17:01:06.163Z,100908.80
2017-09-22T17:03:33.559Z,100922.10
2017-09-22T17:06:00.964Z,100926.67
2017-09-22T17:08:28.368Z,100931.69
2017-09-22T17:10:55.778Z,100919.68
2017-09-22T17:13:23.177Z,100919.11
2017-09-22T17:15:50.568Z,100935.56
2017-09-22T17:18:17.967Z,100938.61
2017-09-22T17:20:45.367Z,100936.39
2017-09-22T17:23:12.770Z,100932.82
2017-09-22T17:25:40.162Z,100935.98
2017-09-22T17:28:07.578Z,100946.36
2017-09-22T17:30:34.975Z,100950.34
2017-09-22T17:33:02.371Z,100942.92
2017-09-22T17:35:29.773Z,100951.50
2017-09-22T17:37:57.170Z,100945.47
2017-09-22T17:40:24.573Z,100945.27
2017-09-22T17:42:51.975Z,100956.13
2017-09-22T17:45:19.384Z,100953.07
2017-09-22T17:47:46.782Z,100951.17
2017-09-22T17:50:14.194Z,100952.94
2017-09-22T17:52:41.604Z,100955.22
2017-09-22T17:55:09.006Z,100955.22
2017-09-22T17:57:36.405Z,100957.92
2017-09-22T18:00:03.815Z,100960.84
2017-09-22T18:02:31.234Z,100962.93
2017-09-22T18:04:58.629Z,100969.13
2017-09-22T18:07:26.021Z,100969.13
2017-09-22T18:09:53.422Z,100967.77
2017-09-22T18:12:21.750Z,100967.06
2017-09-22T18:14:50.034Z,100974.09
2017-09-22T18:17:17.761Z,100982.45
2017-09-22T18:19:46.085Z,100985.33
2017-09-22T18:22:13.478Z,100980.33
2017-09-22T18:24:40.882Z,100988.25
2017-09-22T18:27:08.282Z,100991.17
2017-09-22T18:29:35.678Z,100994.34
2017-09-22T18:32:03.083Z,100991.36
2017-09-22T18:34:30.486Z,100998.03
2017-09-22T18:36:57.894Z,101007.09
2017-09-22T18:39:25.294Z,101012.99
2017-09-22T18:41:52.687Z,101012.19
2017-09-22T18:44:20.090Z,101015.83
2017-09-22T18:46:47.483Z,101017.56
2017-09-22T18:49:14.878Z,101014.58
2017-09-22T18:51:42.276Z,101017.09
2017-09-22T18:54:09.684Z,101018.34
2017-09-22T18:56:37.079Z,101018.38
2017-09-22T18:59:04.474Z,101015.98
2017-09-22T19:01:31.877Z,101019.28
2017-09-22T19:03:59.278Z,101024.41
2017-09-22T19:06:26.674Z,101017.29
2017-09-22T19:08:54.068Z,101019.70
2017-09-22T19:11:21.478Z,101025.67
2017-09-22T19:13:48.870Z,101028.36
2017-09-22T19:16:16.266Z,101034.10
2017-09-22T19:18:43.671Z,101029.42
2017-09-22T19:21:11.067Z,101035.96
2017-09-22T19:23:38.472Z,101036.67
2017-09-22T19:26:05.866Z,101043.53
2017-09-22T19:28:33.280Z,101037.91
2017-09-22T19:31:00.671Z,101045.52
2017-09-22T19:33:28.067Z,101042.41
2017-09-22T19:35:55.475Z,101040.19
2017-09-22T19:38:22.867Z,101035.73
2017-09-22T19:40:50.268Z,101031.45
2017-09-22T19:43:17.662Z,101033.97
2017-09-22T19:45:45.071Z,101035.89
2017-09-22T19:48:12.474Z,101042.06
2017-09-22T19:50:39.870Z,101040.66
2017-09-22T19:53:07.284Z,101040.53
2017-09-22T19:55:34.679Z,101039.38
2017-09-22T19:58:02.087Z,101042.12
2017-09-22T20:00:29.482Z,101039.23
2017-09-22T20:02:56.897Z,101051.02
2017-09-22T20:05:24.296Z,101039.53
2017-09-22T20:07:51.693Z,101047.91
2017-09-22T20:10:19.102Z,101042.64
2017-09-22T20:12:46.497Z,101046.52
2017-09-22T20:15:13.930Z,101049.72
2017-09-22T20:17:41.322Z,101045.52
2017-09-22T20:20:08.729Z,101052.89
2017-09-22T20:22:36.127Z,101054.58
2017-09-22T20:25:03.526Z,101058.84
2017-09-22T20:27:30.934Z,101055.17
2017-09-22T20:29:58.330Z,101061.38
2017-09-22T20:32:25.742Z,101051.14
2017-09-22T20:34:53.143Z,101058.38
2017-09-22T20:37:20.542Z,101067.03
2017-09-22T20:39:47.942Z,101064.60
2017-09-22T20:42:15.339Z,101066.46
2017-09-22T20:44:42.738Z,101078.76
2017-09-22T20:47:10.134Z,101082.72
2017-09-22T20:49:37.532Z,101086.38
2017-09-22T20:52:04.934Z,101088.95
2017-09-22T20:54:32.329Z,101082.72
2017-09-22T20:56:59.749Z,101089.78
2017-09-22T20:59:27.173Z,101088.82
2017-09-22T21:01:54.562Z,101088.23
2017-09-22T21:04:21.961Z,101088.36
2017-09-22T21:06:49.359Z,101095.31
2017-09-22T21:09:16.757Z,101090.80
2017-09-22T21:11:44.150Z,101093.77
2017-09-22T21:14:11.566Z,101092.66
2017-09-22T21:16:38.963Z,101090.41
2017-09-22T21:19:06.363Z,101093.14
2017-09-22T21:21:33.766Z,101094.36
2017-09-22T21:24:01.201Z,101093.77
2017-09-22T21:26:28.572Z,101090.25
2017-09-22T21:28:55.969Z,101079.39
2017-09-22T21:31:23.367Z,101086.12
2017-09-22T21:33:50.771Z,101089.73
2017-09-22T21:36:18.166Z,101087.05
2017-09-22T21:38:45.567Z,101087.22
2017-09-22T21:41:12.966Z,101083.64
2017-09-22T21:43:40.366Z,101086.20
2017-09-22T21:46:07.764Z,101081.66
2017-09-22T21:48:35.166Z,101085.06
2017-09-22T21:51:02.570Z,101083.30
2017-09-22T21:53:29.983Z,101078.67
2017-09-22T21:55:57.373Z,101071.57
2017-09-22T21:58:24.770Z,101079.19
2017-09-22T22:00:52.176Z,101080.66
2017-09-22T22:03:25.274Z,101072.33
2017-09-22T22:05:52.687Z,101075.99
2017-09-22T22:08:20.083Z,101070.78
2017-09-22T22:10:47.480Z,101071.71
2017-09-22T22:13:14.878Z,101075.98
2017-09-22T22:15:42.274Z,101084.00
2017-09-22T22:18:09.686Z,101081.17
2017-09-22T22:20:37.074Z,101083.36
2017-09-22T22:23:04.468Z,101087.27
2017-09-22T22:25:31.870Z,101085.00
2017-09-22T22:27:59.263Z,101083.66
2017-09-22T22:30:26.676Z,101090.25
2017-09-22T22:32:54.071Z,101087.24
2017-09-22T22:35:21.466Z,101095.39
2017-09-22T22:37:48.870Z,101084.43
2017-09-22T22:40:16.266Z,101090.73
2017-09-22T22:42:43.678Z,101092.25
2017-09-22T22:45:11.071Z,101092.08
2017-09-22T22:47:38.474Z,101093.22
2017-09-22T22:50:05.883Z,101096.19
2017-09-22T22:52:33.278Z,101097.86
2017-09-22T22:55:00.674Z,101092.95
2017-09-22T22:57:28.091Z,101098.30
2017-09-22T22:59:55.486Z,101094.42
2017-09-22T23:02:22.882Z,101092.45
2017-09-22T23:04:50.302Z,101095.35
2017-09-22T23:07:17.698Z,101100.32
2017-09-22T23:09:45.098Z,101104.09
2017-09-22T23:12:12.503Z,101110.03
2017-09-22T23:14:39.900Z,101108.90
2017-09-22T23:17:07.294Z,101109.52
2017-09-22T23:19:34.702Z,101105.58
2017-09-22T23:22:02.102Z,101106.08
2017-09-22T23:24:29.495Z,101112.51
2017-09-22T23:26:56.906Z,101120.62
2017-09-22T23:29:24.619Z,101115.95
2017-09-22T23:31:52.017Z,101116.05
2017-09-22T23:34:19.427Z,101117.63
2017-09-22T23:36:46.824Z,101115.45
2017-09-22T23:39:14.225Z,101114.56
2017-09-22T23:41:41.642Z,101109.72
2017-09-22T23:44:09.049Z,101108.29
2017-09-22T23:46:36.454Z,101110.89
2017-09-22T23:49:03.875Z,101117.25
2017-09-22T23:51:31.270Z,101112.59
2017-09-22T23:53:58.666Z,101117.42
2017-09-22T23:56:26.074Z,101116.88
2017-09-22T23:58:53.514Z,101125.88
